Wevertown, New York
Current Conditions -  °F | °C
As of 8:53 PM on Thursday 20 Nov 2014 (Local Time) from KGFL Reporting Station
Clear Clear  
Wind Chill: 19°   Ceiling: Unl
Heat Index: 27°   Visibility: 10mi
Dew Point: 13°   Wind: 8mph
Humidity: 56%   Direction: 220°SW
Pressure: 29.89"   Gusts: 16mph
Location:  43.63°N, 73.94°W
Report Text: KGFL 210153Z AUTO 22007G14KT 10SM CLR M03/M11 A2989 RMK AO2 SLP131 T10281106
Loading
Personal Weather Stations






























Interactive Weather Map New forecast layout! Learn more

10-Day Weather Forecast

Advertisements
Track Severe Weather on mobile